Weather reports worldwide

Advertisment
Pristina, Kosovo (13481): temperature & dewpoint: 16.02.2019 02:00:00 - 22.02.2019 02:00:00 (CET)Pristina, Kosovo (13481): wind speed: 16.02.2019 02:00:00 - 22.02.2019 02:00:00 (CET)Pristina, Kosovo (13481): wind direction: 16.02.2019 02:00:00 - 22.02.2019 02:00:00 (CET)Pristina, Kosovo (13481): visibility: 16.02.2019 02:00:00 - 22.02.2019 02:00:00 (CET)
Date & Time tt [°C] td [°C] ff [km/h] ff [kn] dd vv [km]
22.02.2019 02:00:00 -3,0 -7,0 0 0 N 10
22.02.2019 01:00:00 -2,0 -7,0 2 1 - 10
22.02.2019 00:00:00 -1,0 -6,0 2 1 - 10
21.02.2019 23:00:00 -1,0 -7,0 0 0 N 10
21.02.2019 22:00:00 2,0 -6,0 5 3 - 10
21.02.2019 21:00:00 1,0 -6,0 5 3 - 10
21.02.2019 20:00:00 4,0 -6,0 5 3 - 10
21.02.2019 19:00:00 5,0 -5,0 4 2 - 10
21.02.2019 18:00:00 6,0 -6,0 16 9 N 10
21.02.2019 17:00:00 9,0 -5,0 13 7 N 10
21.02.2019 16:00:00 12,0 -7,0 18 10 N 10
21.02.2019 15:00:00 12,0 -7,0 13 7 N 10
21.02.2019 14:00:00 12,0 -7,0 18 10 N 10
21.02.2019 13:00:00 12,0 -7,0 22 12 N 10
21.02.2019 12:00:00 11,0 -6,0 21 11 NNW 10
21.02.2019 11:00:00 9,0 -4,0 16 9 NNE 10
21.02.2019 10:00:00 7,0 -2,0 5 3 - 8
21.02.2019 09:00:00 3,0 -1,0 5 3 - 6
21.02.2019 08:00:00 1,0 -2,0 4 2 - 4,0
21.02.2019 07:00:00 -2,0 -5,0 2 1 - 2,0
21.02.2019 06:00:00 -2,0 -5,0 0 0 N 7
21.02.2019 05:00:00 -3,0 -6,0 2 1 - 8
21.02.2019 04:00:00 -1,0 -4,0 0 0 N 8
21.02.2019 03:00:00 0,0 -4,0 2 1 - 10
21.02.2019 02:00:00 1,0 -3,0 4 2 - 10
21.02.2019 01:00:00 1,0 -4,0 0 0 N 10
21.02.2019 00:00:00 1,0 -3,0 2 1 - 10
20.02.2019 23:00:00 2,0 -3,0 4 2 - 10
20.02.2019 22:00:00 5,0 -3,0 8 4 NNW 10
20.02.2019 21:00:00 5,0 -2,0 8 4 NW 10
20.02.2019 20:00:00 6,0 -2,0 5 3 - 10
20.02.2019 19:00:00 7,0 -2,0 8 4 NW 10
20.02.2019 18:00:00 8,0 -3,0 9 5 NW 10
20.02.2019 17:00:00 10,0 -3,0 13 7 N 10
20.02.2019 16:00:00 14,0 -5,0 11 6 NNE 10
20.02.2019 15:00:00 14,0 -6,0 13 7 NNE 10
20.02.2019 14:00:00 14,0 -7,0 13 7 NNE 10
20.02.2019 13:00:00 14,0 -6,0 11 6 N 10
20.02.2019 12:00:00 13,0 -4,0 8 4 ENE 10
20.02.2019 11:00:00 11,0 -2,0 5 3 - 10
20.02.2019 10:00:00 7,0 -3,0 2 1 - 10
20.02.2019 09:00:00 3,0 -4,0 2 1 - 8
20.02.2019 08:00:00 0,0 -4,0 2 1 - 6
20.02.2019 07:00:00 -4,0 -7,0 2 1 - 4,0
20.02.2019 06:00:00 -3,0 -7,0 0 0 N 10
20.02.2019 05:00:00 -4,0 -8,0 2 1 - 10
20.02.2019 04:00:00 -2,0 -7,0 5 3 - 10
20.02.2019 03:00:00 -2,0 -7,0 0 0 N 10
20.02.2019 02:00:00 -2,0 -6,0 0 0 N 10
20.02.2019 01:00:00 -2,0 -7,0 2 1 - 10
20.02.2019 00:00:00 0,0 -6,0 2 1 - 10
19.02.2019 23:00:00 1,0 -6,0 4 2 - 10
19.02.2019 22:00:00 1,0 -5,0 4 2 - 10
19.02.2019 21:00:00 6,0 -6,0 2 1 - 10
19.02.2019 20:00:00 6,0 -5,0 4 2 - 10
19.02.2019 19:00:00 10,0 -5,0 5 3 - 10
19.02.2019 18:00:00 10,0 -5,0 2 1 - 10
19.02.2019 17:00:00 12,0 -5,0 8 4 W 10
19.02.2019 16:00:00 15,0 -6,0 11 6 W 10
19.02.2019 15:00:00 15,0 -5,0 5 3 - 10
19.02.2019 14:00:00 14,0 -3,0 8 4 SE 10
19.02.2019 13:00:00 13,0 -2,0 8 4 SSE 10
19.02.2019 12:00:00 11,0 -3,0 8 4 SSE 10
19.02.2019 11:00:00 8,0 -2,0 8 4 SSE 10
19.02.2019 10:00:00 5,0 -3,0 2 1 - 6
19.02.2019 09:00:00 1,0 -3,0 2 1 - 5
19.02.2019 08:00:00 -1,0 -4,0 0 0 N 4,0
19.02.2019 07:00:00 -5,0 -7,0 0 0 N 2,0
19.02.2019 06:00:00 -5,0 -7,0 0 0 N 6
19.02.2019 05:00:00 -4,0 -7,0 4 2 - 7
19.02.2019 04:00:00 -3,0 -6,0 0 0 N 10
19.02.2019 03:00:00 -3,0 -7,0 0 0 N 10
19.02.2019 02:00:00 -2,0 -6,0 0 0 N 10
19.02.2019 01:00:00 -2,0 -6,0 4 2 - 10
19.02.2019 00:00:00 -2,0 -6,0 4 2 - 10
18.02.2019 23:00:00 0,0 -5,0 2 1 - 10
18.02.2019 22:00:00 1,0 -5,0 0 0 N 10
18.02.2019 21:00:00 2,0 -5,0 2 1 - 10
18.02.2019 20:00:00 3,0 -4,0 4 2 - 10
18.02.2019 19:00:00 4,0 -5,0 2 1 - 10
18.02.2019 18:00:00 8,0 -4,0 8 4 W 10
18.02.2019 17:00:00 10,0 -3,0 5 3 - 10
18.02.2019 16:00:00 14,0 -6,0 5 3 - 10
18.02.2019 15:00:00 14,0 -4,0 2 1 - 10
18.02.2019 14:00:00 13,0 -4,0 4 2 - 10
18.02.2019 13:00:00 13,0 -5,0 4 2 - 10
18.02.2019 12:00:00 10,0 -2,0 4 2 - 10
18.02.2019 11:00:00 7,0 -2,0 4 2 - 8
18.02.2019 10:00:00 4,0 -2,0 2 1 - 7
18.02.2019 09:00:00 1,0 -3,0 0 0 N 6
18.02.2019 08:00:00 -1,0 -5,0 0 0 N 5
18.02.2019 07:00:00 -5,0 -7,0 0 0 N 4,0
18.02.2019 06:00:00 -4,0 -7,0 0 0 N 6
18.02.2019 05:00:00 -4,0 -7,0 4 2 - 8
18.02.2019 04:00:00 -4,0 -7,0 2 1 - 10
18.02.2019 03:00:00 -3,0 -6,0 0 0 N 10
18.02.2019 02:00:00 -3,0 -6,0 0 0 N 10
18.02.2019 01:00:00 -2,0 -6,0 2 1 - 10
18.02.2019 00:00:00 -1,0 -5,0 0 0 N 10
17.02.2019 23:00:00 0,0 -5,0 4 2 - 10
17.02.2019 22:00:00 1,0 -5,0 2 1 - 10
17.02.2019 21:00:00 4,0 -5,0 4 2 - 10
17.02.2019 20:00:00 5,0 -4,0 8 4 WNW 10
17.02.2019 19:00:00 5,0 -3,0 9 5 NNW 10
17.02.2019 18:00:00 5,0 -4,0 5 3 - 10
17.02.2019 17:00:00 8,0 -2,0 4 2 - 10
17.02.2019 16:00:00 12,0 -4,0 4 2 - 10
17.02.2019 15:00:00 11,0 -4,0 2 1 - 10
17.02.2019 14:00:00 11,0 -4,0 5 3 - 10
17.02.2019 13:00:00 9,0 -3,0 8 4 NE 10
17.02.2019 12:00:00 8,0 -3,0 5 3 - 10
17.02.2019 11:00:00 6,0 -2,0 2 1 - 10
17.02.2019 10:00:00 3,0 -2,0 2 1 - 7
17.02.2019 09:00:00 0,0 -4,0 2 1 - 5
17.02.2019 08:00:00 -2,0 -4,0 0 0 N 3,0
17.02.2019 07:00:00 -5,0 -7,0 2 1 - 1,6
17.02.2019 06:00:00 -5,0 -7,0 0 0 N 3,0
17.02.2019 05:00:00 -4,0 -6,0 2 1 - 4,0
17.02.2019 04:00:00 -4,0 -7,0 2 1 - 6
17.02.2019 03:00:00 -4,0 -7,0 2 1 - 7
17.02.2019 02:00:00 -3,0 -6,0 0 0 N 10
17.02.2019 01:00:00 -3,0 -7,0 2 1 - 10
17.02.2019 00:00:00 -3,0 -6,0 2 1 - 10
16.02.2019 23:00:00 -1,0 -4,0 2 1 - 10
16.02.2019 22:00:00 -1,0 -5,0 2 1 - 10
16.02.2019 21:00:00 0,0 -5,0 5 3 - 10
16.02.2019 20:00:00 2,0 -5,0 8 4 NW 10
16.02.2019 19:00:00 2,0 -4,0 8 4 WNW 10
16.02.2019 18:00:00 4,0 -4,0 8 4 WNW 10
16.02.2019 17:00:00 6,0 -4,0 11 6 NNE 10
16.02.2019 16:00:00 8,0 -3,0 15 8 NNE 10
16.02.2019 15:00:00 8,0 -4,0 11 6 NNE 10
16.02.2019 14:00:00 9,0 -3,0 9 5 NNE 10
16.02.2019 13:00:00 8,0 -4,0 11 6 ENE 10
16.02.2019 12:00:00 7,0 -3,0 11 6 NNE 10
16.02.2019 11:00:00 5,0 -4,0 9 5 N 10
16.02.2019 10:00:00 4,0 -3,0 5 3 - 10
16.02.2019 09:00:00 2,0 -3,0 2 1 - 10
16.02.2019 08:00:00 -2,0 -5,0 5 3 - 10
16.02.2019 07:00:00 -3,0 -6,0 2 1 - 10
16.02.2019 06:00:00 -3,0 -5,0 4 2 - 10
16.02.2019 05:00:00 -2,0 -5,0 0 0 N 10
16.02.2019 04:00:00 -1,0 -4,0 0 0 N 10
16.02.2019 03:00:00 -1,0 -4,0 0 0 N 10
16.02.2019 02:00:00 -1,0 -4,0 2 1 - 10

tt = temperature
td = dewpoint
ff = wind speed
dd = wind direction
vv = visibility

Next stations